createdAt,value
2018-05-17T00:00:20.883Z,0
2018-05-17T00:01:30.752Z,0
2018-05-17T00:02:40.620Z,0
2018-05-17T00:03:50.747Z,0
2018-05-17T00:05:00.875Z,0
2018-05-17T00:06:11.093Z,0
2018-05-17T00:07:20.886Z,0
2018-05-17T00:08:31.024Z,0
2018-05-17T00:09:41.218Z,0
2018-05-17T00:10:51.450Z,0
2018-05-17T00:12:01.589Z,0
2018-05-17T00:13:11.814Z,0
2018-05-17T00:14:22.025Z,0
2018-05-17T00:15:32.220Z,0
2018-05-17T00:16:42.352Z,0
2018-05-17T00:17:52.499Z,0
2018-05-17T00:19:02.668Z,0
2018-05-17T00:20:12.544Z,0
2018-05-17T00:21:22.676Z,0
2018-05-17T00:22:32.808Z,0
2018-05-17T00:23:42.970Z,0
2018-05-17T00:24:52.903Z,0
2018-05-17T00:26:03.046Z,0
2018-05-17T00:27:13.206Z,0
2018-05-17T00:28:23.356Z,0
2018-05-17T00:29:33.262Z,0
2018-05-17T00:30:43.267Z,0
2018-05-17T00:31:53.451Z,0
2018-05-17T00:33:03.454Z,0
2018-05-17T00:34:13.637Z,0
2018-05-17T00:35:23.763Z,0
2018-05-17T00:36:33.903Z,0
2018-05-17T00:37:44.079Z,0
2018-05-17T00:38:54.290Z,0
2018-05-17T00:40:04.573Z,0
2018-05-17T00:41:14.791Z,0
2018-05-17T00:42:24.931Z,0
2018-05-17T00:43:35.116Z,0
2018-05-17T00:44:45.009Z,0
2018-05-17T00:45:55.231Z,0
2018-05-17T00:47:05.362Z,0
2018-05-17T00:48:15.532Z,0
2018-05-17T00:49:25.712Z,0
2018-05-17T00:50:35.890Z,0
2018-05-17T00:51:45.779Z,0
2018-05-17T00:52:55.990Z,0
2018-05-17T00:54:06.261Z,0
2018-05-17T00:55:16.399Z,0
2018-05-17T00:56:26.640Z,0
2018-05-17T00:57:36.642Z,0
2018-05-17T00:58:46.791Z,0
2018-05-17T00:59:56.929Z,0
2018-05-17T01:01:07.087Z,0
2018-05-17T01:02:17.327Z,0
2018-05-17T01:03:27.507Z,0
2018-05-17T01:04:37.663Z,0
2018-05-17T01:05:47.874Z,0
2018-05-17T01:06:58.065Z,0
2018-05-17T01:08:08.265Z,0
2018-05-17T01:09:18.426Z,0
2018-05-17T01:10:28.428Z,0
2018-05-17T01:11:38.609Z,0
2018-05-17T01:12:48.878Z,0
2018-05-17T01:13:59.027Z,0
2018-05-17T01:15:09.175Z,0
2018-05-17T01:16:18.792Z,0
2018-05-17T01:17:29.224Z,0
2018-05-17T01:18:39.378Z,0
2018-05-17T01:19:49.562Z,0
2018-05-17T01:20:59.704Z,0
2018-05-17T01:22:09.850Z,0
2018-05-17T01:23:19.983Z,0
2018-05-17T01:24:30.151Z,0
2018-05-17T01:25:40.309Z,0
2018-05-17T01:26:50.514Z,0
2018-05-17T01:28:00.663Z,0
2018-05-17T01:29:10.943Z,0
2018-05-17T01:30:21.169Z,0
2018-05-17T01:31:30.723Z,0
2018-05-17T01:32:40.851Z,0
2018-05-17T01:33:51.011Z,0
2018-05-17T01:35:01.418Z,0
2018-05-17T01:36:11.835Z,0
2018-05-17T01:37:21.742Z,0
2018-05-17T01:38:31.928Z,0
2018-05-17T01:39:42.061Z,0
2018-05-17T01:40:52.201Z,0
2018-05-17T01:42:02.576Z,0
2018-05-17T01:43:12.744Z,0
2018-05-17T01:44:22.888Z,0
2018-05-17T01:45:32.801Z,0
2018-05-17T01:46:42.953Z,0
2018-05-17T01:47:53.107Z,0
2018-05-17T01:49:03.016Z,0
2018-05-17T01:50:13.211Z,0
2018-05-17T01:51:23.337Z,0
2018-05-17T01:52:33.481Z,0
2018-05-17T01:53:43.658Z,0
2018-05-17T01:54:53.823Z,0
2018-05-17T01:56:04.005Z,0
2018-05-17T01:57:14.159Z,0
2018-05-17T01:58:24.191Z,0
2018-05-17T01:59:34.331Z,0
2018-05-17T02:00:44.097Z,0
2018-05-17T02:01:54.233Z,0
2018-05-17T02:03:04.114Z,0
2018-05-17T02:04:14.245Z,0
2018-05-17T02:05:24.375Z,0
2018-05-17T02:06:34.271Z,0
2018-05-17T02:07:44.405Z,0
2018-05-17T02:08:54.327Z,0
2018-05-17T02:10:04.222Z,0
2018-05-17T02:11:14.158Z,0
2018-05-17T02:12:24.283Z,0
2018-05-17T02:13:34.446Z,0
2018-05-17T02:14:44.784Z,0
2018-05-17T02:15:54.542Z,0
2018-05-17T02:17:04.571Z,0
2018-05-17T02:18:14.698Z,0
2018-05-17T02:19:24.865Z,0
2018-05-17T02:20:35.973Z,0
2018-05-17T02:21:46.121Z,0
2018-05-17T02:22:55.890Z,0
2018-05-17T02:24:06.032Z,0
2018-05-17T02:25:15.889Z,0
2018-05-17T02:26:26.038Z,0
2018-05-17T02:27:36.174Z,0
2018-05-17T02:28:47.364Z,0
2018-05-17T02:29:57.575Z,0
2018-05-17T02:31:07.449Z,0
2018-05-17T02:32:17.601Z,0
2018-05-17T02:33:27.813Z,0
2018-05-17T02:34:37.978Z,0
2018-05-17T02:35:48.173Z,0
2018-05-17T02:36:58.354Z,0
2018-05-17T02:38:08.596Z,0
2018-05-17T02:39:18.757Z,4
2018-05-17T02:40:28.892Z,4
2018-05-17T02:41:39.037Z,0
2018-05-17T02:42:49.171Z,0
2018-05-17T02:43:59.311Z,4
2018-05-17T02:45:09.510Z,4
2018-05-17T02:46:19.667Z,4
2018-05-17T02:47:29.547Z,4
2018-05-17T02:48:39.470Z,4
2018-05-17T02:49:49.595Z,8
2018-05-17T02:50:59.734Z,8
2018-05-17T02:52:09.901Z,8
2018-05-17T02:53:20.032Z,8
2018-05-17T02:54:30.215Z,12
2018-05-17T02:55:40.376Z,16
2018-05-17T02:56:50.500Z,16
2018-05-17T02:58:00.646Z,20
2018-05-17T02:59:10.854Z,20
2018-05-17T03:00:20.982Z,24
2018-05-17T03:01:31.160Z,28
2018-05-17T03:02:41.305Z,32
2018-05-17T03:03:51.510Z,36
2018-05-17T03:05:03.597Z,40
2018-05-17T03:06:13.516Z,48
2018-05-17T03:07:23.785Z,52
2018-05-17T03:08:33.956Z,56
2018-05-17T03:09:44.133Z,64
2018-05-17T03:10:54.297Z,72
2018-05-17T03:12:04.475Z,80
2018-05-17T03:13:14.607Z,92
2018-05-17T03:14:24.463Z,100
2018-05-17T03:15:34.622Z,116
2018-05-17T03:16:44.779Z,132
2018-05-17T03:17:54.660Z,148
2018-05-17T03:19:04.820Z,168
2018-05-17T03:20:14.950Z,184
2018-05-17T03:21:25.118Z,204
2018-05-17T03:22:35.261Z,220
2018-05-17T03:23:45.418Z,240
2018-05-17T03:24:55.641Z,260
2018-05-17T03:26:05.772Z,280
2018-05-17T03:27:15.634Z,308
2018-05-17T03:28:25.798Z,328
2018-05-17T03:29:35.932Z,356
2018-05-17T03:30:46.097Z,384
2018-05-17T03:31:56.316Z,412
2018-05-17T03:33:06.443Z,448
2018-05-17T03:34:16.565Z,480
2018-05-17T03:35:26.686Z,512
2018-05-17T03:36:36.820Z,548
2018-05-17T03:37:46.976Z,580
2018-05-17T03:38:56.859Z,612
2018-05-17T03:40:06.962Z,644
2018-05-17T03:41:17.311Z,684
2018-05-17T03:42:27.171Z,716
2018-05-17T03:43:37.293Z,740
2018-05-17T03:44:47.149Z,784
2018-05-17T03:45:57.301Z,808
2018-05-17T03:47:07.456Z,832
2018-05-17T03:48:17.584Z,864
2018-05-17T03:49:27.137Z,892
2018-05-17T03:50:37.269Z,924
2018-05-17T03:51:47.399Z,960
2018-05-17T03:52:57.526Z,1000
2018-05-17T03:54:07.723Z,1036
2018-05-17T03:55:17.681Z,1064
2018-05-17T03:56:27.537Z,1092
2018-05-17T03:57:37.679Z,1124
2018-05-17T03:58:47.551Z,1148
2018-05-17T03:59:58.005Z,1172
2018-05-17T04:01:08.170Z,1188
2018-05-17T04:02:18.332Z,1216
2018-05-17T04:03:28.202Z,1236
2018-05-17T04:04:38.340Z,1268
2018-05-17T04:05:48.519Z,1292
2018-05-17T04:06:58.724Z,1320
2018-05-17T04:08:08.950Z,1356
2018-05-17T04:09:18.903Z,1388
2018-05-17T04:10:28.784Z,1416
2018-05-17T04:11:39.155Z,1440
2018-05-17T04:12:49.103Z,1456
2018-05-17T04:13:59.621Z,1468
2018-05-17T04:15:09.995Z,1484
2018-05-17T04:16:20.165Z,1528
2018-05-17T04:17:30.294Z,1532
2018-05-17T04:18:40.185Z,1572
2018-05-17T04:19:50.336Z,1620
2018-05-17T04:21:00.392Z,1680
2018-05-17T04:22:10.550Z,1684
2018-05-17T04:23:20.793Z,1724
2018-05-17T04:24:30.980Z,1724
2018-05-17T04:25:41.131Z,1708
2018-05-17T04:26:51.492Z,1708
2018-05-17T04:28:01.754Z,1652
2018-05-17T04:29:11.640Z,1648
2018-05-17T04:30:21.772Z,1620
2018-05-17T04:31:31.950Z,1560
2018-05-17T04:32:42.118Z,1552
2018-05-17T04:33:52.003Z,1476
2018-05-17T04:35:02.144Z,1572
2018-05-17T04:36:12.311Z,1576
2018-05-17T04:37:22.457Z,1656
2018-05-17T04:38:32.700Z,1564
2018-05-17T04:39:42.616Z,1660
2018-05-17T04:40:52.747Z,1716
2018-05-17T04:42:02.888Z,1724
2018-05-17T04:43:13.168Z,1816
2018-05-17T04:44:23.489Z,1784
2018-05-17T04:45:33.692Z,1836
2018-05-17T04:46:43.407Z,1924
2018-05-17T04:47:53.677Z,1904
2018-05-17T04:49:03.829Z,1932
2018-05-17T04:50:13.446Z,1888
2018-05-17T04:51:23.695Z,1996
2018-05-17T04:52:33.976Z,2092
2018-05-17T04:53:44.193Z,2092
2018-05-17T04:54:54.654Z,2076
2018-05-17T04:56:04.804Z,2100
2018-05-17T04:57:14.956Z,2004
2018-05-17T04:58:25.120Z,2092
2018-05-17T04:59:35.326Z,2176
2018-05-17T05:00:45.577Z,1972
2018-05-17T05:01:55.744Z,2084
2018-05-17T05:03:06.350Z,2272
2018-05-17T05:04:16.586Z,2352
2018-05-17T05:05:26.402Z,2320
2018-05-17T05:06:36.270Z,2452
2018-05-17T05:07:46.425Z,2544
2018-05-17T05:08:56.238Z,2596
2018-05-17T05:10:06.396Z,2592
2018-05-17T05:11:16.534Z,2588
2018-05-17T05:12:26.775Z,2732
2018-05-17T05:13:37.015Z,2972
2018-05-17T05:14:47.215Z,2856
2018-05-17T05:15:57.521Z,2992
2018-05-17T05:17:07.662Z,3120
2018-05-17T05:18:17.923Z,2968
2018-05-17T05:19:28.073Z,2948
2018-05-17T05:20:38.314Z,3036
2018-05-17T05:21:48.475Z,3352
2018-05-17T05:22:58.696Z,3380
2018-05-17T05:24:08.936Z,3404
2018-05-17T05:25:19.617Z,3160
2018-05-17T05:26:29.958Z,3240
2018-05-17T05:27:40.128Z,3348
2018-05-17T05:28:50.357Z,3196
2018-05-17T05:30:00.570Z,3160
2018-05-17T05:31:10.747Z,3328
2018-05-17T05:32:20.939Z,3372
2018-05-17T05:33:30.847Z,3372
2018-05-17T05:34:41.029Z,3200
2018-05-17T05:35:51.225Z,3284
2018-05-17T05:37:01.120Z,3160
2018-05-17T05:38:11.240Z,3264
2018-05-17T05:39:21.367Z,3488
2018-05-17T05:40:31.184Z,3560
2018-05-17T05:41:41.376Z,3668
2018-05-17T05:42:51.245Z,3820
2018-05-17T05:44:01.413Z,4040
2018-05-17T05:45:11.584Z,3752
2018-05-17T05:46:21.760Z,3932
2018-05-17T05:47:31.901Z,3684
2018-05-17T05:48:42.225Z,3388
2018-05-17T05:49:52.365Z,3828
2018-05-17T05:51:02.633Z,4076
2018-05-17T05:52:13.789Z,3876
2018-05-17T05:53:24.174Z,3984
2018-05-17T05:54:34.329Z,4260
2018-05-17T05:55:44.219Z,4372
2018-05-17T05:56:55.536Z,4248
2018-05-17T05:58:05.658Z,3840
2018-05-17T05:59:15.800Z,4052
2018-05-17T06:00:25.950Z,4336
2018-05-17T06:01:36.239Z,4272
2018-05-17T06:02:46.400Z,4452
2018-05-17T06:03:56.283Z,4480
2018-05-17T06:05:06.076Z,4892
2018-05-17T06:06:15.966Z,5044
2018-05-17T06:07:26.258Z,4884
2018-05-17T06:08:36.459Z,4992
2018-05-17T06:09:46.334Z,5264
2018-05-17T06:10:56.492Z,5996
2018-05-17T06:12:06.618Z,6076
2018-05-17T06:13:16.812Z,6056
2018-05-17T06:14:26.810Z,5940
2018-05-17T06:15:36.941Z,6224
2018-05-17T06:16:47.061Z,5580
2018-05-17T06:17:57.245Z,5532
2018-05-17T06:19:06.928Z,5780
2018-05-17T06:20:17.160Z,6016
2018-05-17T06:21:28.330Z,6152
2018-05-17T06:22:38.514Z,6420
2018-05-17T06:23:48.880Z,6468
2018-05-17T06:24:59.187Z,6496
2018-05-17T06:26:09.342Z,6620
2018-05-17T06:27:19.525Z,6792
2018-05-17T06:28:29.045Z,7088
2018-05-17T06:29:38.925Z,7420
2018-05-17T06:30:49.106Z,7596
2018-05-17T06:32:00.225Z,7992
2018-05-17T06:33:10.353Z,8020
2018-05-17T06:34:20.475Z,7844
2018-05-17T06:35:30.582Z,8144
2018-05-17T06:36:40.825Z,8380
2018-05-17T06:37:51.117Z,8540
2018-05-17T06:39:01.276Z,8472
2018-05-17T06:40:11.474Z,8592
2018-05-17T06:41:21.691Z,8792
2018-05-17T06:42:31.943Z,8992
2018-05-17T06:43:42.144Z,9040
2018-05-17T06:44:52.325Z,9140
2018-05-17T06:46:02.570Z,9268
2018-05-17T06:47:12.776Z,9368
2018-05-17T06:48:23.028Z,9460
2018-05-17T06:49:33.165Z,9560
2018-05-17T06:50:43.446Z,9696
2018-05-17T06:51:53.928Z,9668
2018-05-17T06:53:04.150Z,9844
2018-05-17T06:54:14.045Z,9976
2018-05-17T06:55:24.061Z,10176
2018-05-17T06:56:33.564Z,10328
2018-05-17T06:57:43.823Z,10544
2018-05-17T06:58:54.035Z,10792
2018-05-17T07:00:04.207Z,11040
2018-05-17T07:01:14.852Z,11152
2018-05-17T07:02:25.157Z,11472
2018-05-17T07:03:35.047Z,11692
2018-05-17T07:04:45.181Z,11756
2018-05-17T07:05:55.439Z,11724
2018-05-17T07:07:05.646Z,12040
2018-05-17T07:08:15.948Z,12208
2018-05-17T07:09:25.708Z,12216
2018-05-17T07:10:35.978Z,12276
2018-05-17T07:11:46.187Z,12448
2018-05-17T07:12:56.365Z,12492
2018-05-17T07:14:06.520Z,12608
2018-05-17T07:15:16.198Z,12684
2018-05-17T07:16:26.379Z,12836
2018-05-17T07:17:36.563Z,12996
2018-05-17T07:18:48.632Z,13188
2018-05-17T07:19:59.003Z,13400
2018-05-17T07:21:09.326Z,13940
2018-05-17T07:22:19.496Z,14292
2018-05-17T07:23:29.751Z,14092
2018-05-17T07:24:39.921Z,13748
2018-05-17T07:25:50.322Z,13972
2018-05-17T07:27:00.488Z,14104
2018-05-17T07:28:10.655Z,14008
2018-05-17T07:29:20.805Z,15296
2018-05-17T07:30:31.015Z,15456
2018-05-17T07:31:40.875Z,14576
2018-05-17T07:32:51.087Z,14372
2018-05-17T07:34:01.007Z,14224
2018-05-17T07:35:11.152Z,13508
2018-05-17T07:36:21.294Z,14012
2018-05-17T07:37:31.454Z,13968
2018-05-17T07:38:41.612Z,13608
2018-05-17T07:39:51.909Z,13660
2018-05-17T07:41:02.138Z,13684
2018-05-17T07:42:12.285Z,13780
2018-05-17T07:43:22.483Z,13924
2018-05-17T07:44:32.280Z,14936
2018-05-17T07:45:42.451Z,14768
2018-05-17T07:46:52.604Z,15360
2018-05-17T07:48:02.862Z,15136
2018-05-17T07:49:13.099Z,14524
2018-05-17T07:50:23.001Z,15808
2018-05-17T07:51:33.191Z,14264
2018-05-17T07:52:43.353Z,14548
2018-05-17T07:53:53.509Z,14636
2018-05-17T07:55:03.400Z,14588
2018-05-17T07:56:13.549Z,14636
2018-05-17T07:57:23.698Z,14000
2018-05-17T07:58:33.567Z,13344
2018-05-17T07:59:43.698Z,13072
2018-05-17T08:00:53.930Z,13952
2018-05-17T08:02:04.102Z,13712
2018-05-17T08:03:14.126Z,13280
2018-05-17T08:04:24.267Z,13444
2018-05-17T08:05:34.402Z,13260
2018-05-17T08:06:44.585Z,13188
2018-05-17T08:07:54.751Z,13088
2018-05-17T08:09:04.986Z,13636
2018-05-17T08:10:14.862Z,13960
2018-05-17T08:11:25.041Z,14316
2018-05-17T08:12:35.174Z,15936
2018-05-17T08:13:45.364Z,16416
2018-05-17T08:14:55.579Z,16672
2018-05-17T08:16:05.787Z,16128
2018-05-17T08:17:16.046Z,15092
2018-05-17T08:18:26.286Z,15616
2018-05-17T08:19:36.425Z,14548
2018-05-17T08:20:46.701Z,14420
2018-05-17T08:21:56.661Z,14284
2018-05-17T08:23:06.824Z,14828
2018-05-17T08:24:16.708Z,16672
2018-05-17T08:25:26.854Z,17984
2018-05-17T08:26:37.002Z,18240
2018-05-17T08:27:47.134Z,18848
2018-05-17T08:28:57.507Z,29856
2018-05-17T08:30:07.795Z,41056
2018-05-17T08:31:17.963Z,41696
2018-05-17T08:32:28.097Z,44640
2018-05-17T08:33:38.234Z,44384
2018-05-17T08:34:48.436Z,47424
2018-05-17T08:35:58.667Z,44960
2018-05-17T08:37:08.912Z,46848
2018-05-17T08:38:19.081Z,47424
2018-05-17T08:39:29.218Z,47360
2018-05-17T08:40:39.521Z,48480
2018-05-17T08:41:49.581Z,47072
2018-05-17T08:42:59.869Z,37792
2018-05-17T08:44:10.175Z,46208
2018-05-17T08:45:20.118Z,45280
2018-05-17T08:46:30.014Z,17056
2018-05-17T08:47:40.173Z,38400
2018-05-17T08:48:50.119Z,51776
2018-05-17T08:50:00.309Z,45568
2018-05-17T08:51:10.538Z,52416
2018-05-17T08:52:20.707Z,26208
2018-05-17T08:53:30.871Z,70944
2018-05-17T08:54:41.028Z,66752
2018-05-17T08:55:51.189Z,39840
2018-05-17T08:57:01.058Z,66208
2018-05-17T08:58:10.993Z,37344
2018-05-17T08:59:21.160Z,57728
2018-05-17T09:00:31.314Z,58720
2018-05-17T09:01:41.517Z,54368
2018-05-17T09:02:51.760Z,58304
2018-05-17T09:04:02.049Z,57632
2018-05-17T09:05:12.268Z,63328
2018-05-17T09:06:22.694Z,60480
2018-05-17T09:07:32.600Z,58016
2018-05-17T09:08:42.825Z,50656
2018-05-17T09:09:52.614Z,56544
2018-05-17T09:11:02.877Z,61888
2018-05-17T09:12:12.773Z,65920
2018-05-17T09:13:22.951Z,63168
2018-05-17T09:14:33.163Z,63744
2018-05-17T09:15:43.328Z,62496
2018-05-17T09:16:53.486Z,53984
2018-05-17T09:18:03.689Z,54144
2018-05-17T09:19:13.896Z,58208
2018-05-17T09:20:24.118Z,56160
2018-05-17T09:21:34.403Z,62816
2018-05-17T09:22:44.311Z,66112
2018-05-17T09:23:54.448Z,52704
2018-05-17T09:25:04.617Z,50208
2018-05-17T09:26:14.511Z,62400
2018-05-17T09:27:24.659Z,64320
2018-05-17T09:28:34.555Z,59520
2018-05-17T09:29:44.933Z,60128
2018-05-17T09:30:55.101Z,64352
2018-05-17T09:32:05.289Z,71296
2018-05-17T09:33:15.541Z,66560
2018-05-17T09:34:25.764Z,61696
2018-05-17T09:35:36.111Z,64288
2018-05-17T09:36:46.048Z,67232
2018-05-17T09:39:08.224Z,65728
2018-05-17T09:40:18.414Z,70944
2018-05-17T09:41:29.008Z,66208
2018-05-17T09:42:39.024Z,58496
2018-05-17T09:43:48.992Z,56608
2018-05-17T09:44:59.161Z,62016
2018-05-17T09:46:09.401Z,67360
2018-05-17T09:47:19.608Z,64544
2018-05-17T09:48:29.837Z,57408
2018-05-17T09:49:39.627Z,48416
2018-05-17T09:50:49.536Z,53216
2018-05-17T09:51:59.766Z,56000
2018-05-17T09:53:09.919Z,53920
2018-05-17T09:54:19.809Z,53856
2018-05-17T09:55:29.700Z,53056
2018-05-17T09:56:39.893Z,48352
2018-05-17T09:57:50.099Z,51776
2018-05-17T09:58:59.984Z,51360
2018-05-17T10:00:10.124Z,55328
2018-05-17T10:01:20.308Z,48800
2018-05-17T10:02:30.212Z,48416
2018-05-17T10:03:40.448Z,52992
2018-05-17T10:04:50.645Z,53696
2018-05-17T10:06:00.856Z,57408
2018-05-17T10:07:11.060Z,59808
2018-05-17T10:08:21.224Z,59168
2018-05-17T10:09:31.464Z,48800
2018-05-17T10:10:41.732Z,48736
2018-05-17T10:11:52.038Z,56896
2018-05-17T10:13:02.202Z,68672
2018-05-17T10:14:12.370Z,60672
2018-05-17T10:15:22.677Z,55968
2018-05-17T10:16:32.868Z,54272
2018-05-17T10:17:43.102Z,59360
2018-05-17T10:18:53.005Z,58240
2018-05-17T10:20:03.177Z,55904
2018-05-17T10:21:13.317Z,58368
2018-05-17T10:22:23.213Z,55104
2018-05-17T10:23:33.470Z,56736
2018-05-17T10:24:43.631Z,60448
2018-05-17T10:25:53.785Z,55840
2018-05-17T10:27:03.984Z,52896
2018-05-17T10:28:14.133Z,53440
2018-05-17T10:29:24.445Z,58720
2018-05-17T10:30:34.660Z,62848
2018-05-17T10:31:44.549Z,65248
2018-05-17T10:32:54.440Z,65952
2018-05-17T10:34:04.797Z,65312
2018-05-17T10:35:14.677Z,69152
2018-05-17T10:36:24.856Z,78432
2018-05-17T10:37:34.489Z,76032
2018-05-17T10:38:44.647Z,71584
2018-05-17T10:39:54.529Z,70976
2018-05-17T10:41:04.669Z,77504
2018-05-17T10:42:15.007Z,82080
2018-05-17T10:43:25.411Z,82560
2018-05-17T10:44:35.660Z,79328
2018-05-17T10:45:45.889Z,80416
2018-05-17T10:46:56.185Z,83392
2018-05-17T10:48:06.397Z,88000
2018-05-17T10:49:16.688Z,87232
2018-05-17T10:50:26.876Z,77248
2018-05-17T10:51:37.060Z,78368
2018-05-17T10:52:47.315Z,84992
2018-05-17T10:53:57.498Z,85184
2018-05-17T10:55:07.734Z,78848
2018-05-17T10:56:17.911Z,75904
2018-05-17T10:57:28.068Z,75872
2018-05-17T10:58:38.266Z,69120
2018-05-17T10:59:48.421Z,70560
2018-05-17T11:00:58.571Z,73536
2018-05-17T11:02:08.717Z,75744
2018-05-17T11:03:18.851Z,81088
2018-05-17T11:04:29.005Z,85120
2018-05-17T11:05:39.227Z,81856
2018-05-17T11:06:49.432Z,73856
2018-05-17T11:07:59.640Z,76320
2018-05-17T11:09:09.613Z,88128
2018-05-17T11:10:19.753Z,87872
2018-05-17T11:11:29.700Z,83264
2018-05-17T11:12:39.912Z,74016
2018-05-17T11:13:51.041Z,76352
2018-05-17T11:15:00.961Z,86784
2018-05-17T11:16:11.264Z,95712
2018-05-17T11:17:21.451Z,93952
2018-05-17T11:18:31.668Z,85632
2018-05-17T11:19:41.948Z,74336
2018-05-17T11:20:51.618Z,82624
2018-05-17T11:22:01.250Z,95168
2018-05-17T11:23:11.592Z,88992
2018-05-17T11:24:21.798Z,74208
2018-05-17T11:25:32.643Z,81440
2018-05-17T11:26:42.539Z,94496
2018-05-17T11:27:52.692Z,97024
2018-05-17T11:29:03.833Z,91776
2018-05-17T11:30:13.485Z,88928
2018-05-17T11:31:23.651Z,82080
2018-05-17T11:32:33.599Z,84608
2018-05-17T11:33:43.789Z,92896
2018-05-17T11:34:53.952Z,95168
2018-05-17T11:36:05.106Z,90912
2018-05-17T11:37:15.280Z,88960
2018-05-17T11:38:25.563Z,90400
2018-05-17T11:39:35.891Z,84640
2018-05-17T11:40:46.046Z,78720
2018-05-17T11:41:57.048Z,77568
2018-05-17T11:43:07.050Z,78784
2018-05-17T11:44:17.634Z,76256
2018-05-17T11:45:27.804Z,68320
2018-05-17T11:46:38.028Z,69504
2018-05-17T11:47:48.282Z,78816
2018-05-17T11:48:58.453Z,83328
2018-05-17T11:50:08.643Z,74624
2018-05-17T11:51:18.945Z,71872
2018-05-17T11:52:29.210Z,79040
2018-05-17T11:53:39.415Z,91616
2018-05-17T11:54:49.329Z,87360
2018-05-17T11:55:59.764Z,70720
2018-05-17T11:57:09.923Z,67008
2018-05-17T11:58:19.834Z,77536
2018-05-17T11:59:30.023Z,75776
2018-05-17T12:00:40.258Z,80224
2018-05-17T12:01:50.527Z,88384
2018-05-17T12:03:00.706Z,89088
2018-05-17T12:04:10.879Z,78624
2018-05-17T12:05:20.798Z,74368
2018-05-17T12:06:30.793Z,80800
2018-05-17T12:07:41.485Z,90400
2018-05-17T12:08:51.649Z,87360
2018-05-17T12:10:02.022Z,78624
2018-05-17T12:11:11.939Z,79840
2018-05-17T12:12:22.081Z,84736
2018-05-17T12:13:32.252Z,85696
2018-05-17T12:14:42.402Z,76736
2018-05-17T12:15:52.580Z,68768
2018-05-17T12:17:02.612Z,73728
2018-05-17T12:18:12.791Z,81888
2018-05-17T12:19:22.969Z,80736
2018-05-17T12:20:33.130Z,78592
2018-05-17T12:21:43.327Z,81920
2018-05-17T12:22:53.271Z,89440
2018-05-17T12:24:03.604Z,77504
2018-05-17T12:25:13.817Z,82368
2018-05-17T12:26:24.063Z,68416
2018-05-17T12:27:34.336Z,76448
2018-05-17T12:28:44.477Z,97280
2018-05-17T12:29:53.995Z,102688
2018-05-17T12:31:04.186Z,84288
2018-05-17T12:32:14.386Z,66560
2018-05-17T12:33:24.539Z,67264
2018-05-17T12:34:34.445Z,79904
2018-05-17T12:35:44.624Z,88096
2018-05-17T12:36:54.785Z,88160
2018-05-17T12:38:04.978Z,85504
2018-05-17T12:39:15.137Z,85824
2018-05-17T12:40:25.303Z,92864
2018-05-17T12:41:35.483Z,91360
2018-05-17T12:42:45.485Z,79360
2018-05-17T12:43:55.768Z,65024
2018-05-17T12:45:05.725Z,63328
2018-05-17T12:46:16.354Z,70496
2018-05-17T12:47:26.634Z,75904
2018-05-17T12:48:36.936Z,78400
2018-05-17T12:49:47.121Z,80672
2018-05-17T12:50:57.781Z,80928
2018-05-17T12:52:07.996Z,76928
2018-05-17T12:53:18.143Z,74784
2018-05-17T12:54:28.313Z,79104
2018-05-17T12:55:38.517Z,78528
2018-05-17T12:56:48.905Z,70464
2018-05-17T12:57:59.189Z,63072
2018-05-17T12:59:09.414Z,65920
2018-05-17T13:00:20.535Z,75328
2018-05-17T13:01:30.701Z,75104
2018-05-17T13:02:41.044Z,63584
2018-05-17T13:03:51.250Z,60224
2018-05-17T13:05:01.160Z,71200
2018-05-17T13:06:11.361Z,80064
2018-05-17T13:07:21.266Z,72736
2018-05-17T13:08:31.647Z,59648
2018-05-17T13:09:41.839Z,57984
2018-05-17T13:10:52.015Z,69920
2018-05-17T13:12:02.229Z,78432
2018-05-17T13:13:12.633Z,72864
2018-05-17T13:14:22.859Z,59040
2018-05-17T13:15:33.037Z,52672
2018-05-17T13:16:43.231Z,60032
2018-05-17T13:17:54.400Z,65952
2018-05-17T13:19:04.669Z,65440
2018-05-17T13:20:14.567Z,61856
2018-05-17T13:21:24.478Z,58112
2018-05-17T13:22:34.187Z,54848
2018-05-17T13:23:44.372Z,58976
2018-05-17T13:24:54.999Z,64704
2018-05-17T13:26:05.399Z,69536
2018-05-17T13:27:15.627Z,63360
2018-05-17T13:28:25.855Z,56576
2018-05-17T13:29:36.037Z,58272
2018-05-17T13:30:46.207Z,64128
2018-05-17T13:31:56.447Z,66912
2018-05-17T13:33:06.619Z,61216
2018-05-17T13:34:16.785Z,52128
2018-05-17T13:35:26.659Z,52256
2018-05-17T13:36:36.968Z,58752
2018-05-17T13:37:47.155Z,57728
2018-05-17T13:38:57.079Z,57472
2018-05-17T13:40:07.256Z,58144
2018-05-17T13:41:17.484Z,54528
2018-05-17T13:42:27.656Z,47744
2018-05-17T13:43:37.847Z,49216
2018-05-17T13:44:47.997Z,53856
2018-05-17T13:45:58.168Z,53248
2018-05-17T13:47:09.462Z,50624
2018-05-17T13:48:19.347Z,50976
2018-05-17T13:49:29.146Z,51136
2018-05-17T13:50:39.301Z,53248
2018-05-17T13:51:49.477Z,55680
2018-05-17T13:52:59.372Z,51584
2018-05-17T13:54:09.776Z,43648
2018-05-17T13:55:20.003Z,41952
2018-05-17T13:56:30.242Z,45216
2018-05-17T13:57:40.401Z,46240
2018-05-17T13:58:50.602Z,49376
2018-05-17T14:00:00.773Z,52800
2018-05-17T14:01:10.721Z,49888
2018-05-17T14:02:21.188Z,47328
2018-05-17T14:03:31.344Z,50752
2018-05-17T14:04:41.583Z,53152
2018-05-17T14:05:51.792Z,51232
2018-05-17T14:07:01.714Z,50208
2018-05-17T14:08:11.923Z,47264
2018-05-17T14:09:22.080Z,44416
2018-05-17T14:10:32.270Z,47296
2018-05-17T14:11:42.642Z,48576
2018-05-17T14:12:52.819Z,42784
2018-05-17T14:14:03.101Z,40608
2018-05-17T14:15:13.469Z,43200
2018-05-17T14:16:24.132Z,47392
2018-05-17T14:17:34.343Z,48672
2018-05-17T14:18:44.495Z,48224
2018-05-17T14:19:54.718Z,45664
2018-05-17T14:21:05.004Z,46336
2018-05-17T14:22:15.260Z,52096
2018-05-17T14:23:25.411Z,53824
2018-05-17T14:24:35.592Z,46624
2018-05-17T14:25:45.519Z,41120
2018-05-17T14:26:55.679Z,46976
2018-05-17T14:28:05.843Z,51296
2018-05-17T14:29:16.030Z,48800
2018-05-17T14:30:26.217Z,49984
2018-05-17T14:31:36.471Z,54368
2018-05-17T14:32:46.724Z,53248
2018-05-17T14:33:56.406Z,50144
2018-05-17T14:35:06.596Z,47680
2018-05-17T14:36:16.763Z,49216
2018-05-17T14:37:26.694Z,51200
2018-05-17T14:38:36.960Z,49056
2018-05-17T14:39:47.187Z,47424
2018-05-17T14:40:57.346Z,47936
2018-05-17T14:42:07.405Z,48928
2018-05-17T14:43:17.639Z,53376
2018-05-17T14:44:27.687Z,56032
2018-05-17T14:45:37.906Z,50336
2018-05-17T14:46:48.103Z,46464
2018-05-17T14:47:59.304Z,50208
2018-05-17T14:49:09.212Z,47968
2018-05-17T14:50:19.389Z,42944
2018-05-17T14:51:29.724Z,43072
2018-05-17T14:52:40.851Z,41088
2018-05-17T14:53:51.015Z,37888
2018-05-17T14:55:02.389Z,42592
2018-05-17T14:56:12.653Z,43104
2018-05-17T14:57:22.837Z,39936
2018-05-17T14:58:32.747Z,39616
2018-05-17T14:59:42.902Z,40192
2018-05-17T15:00:53.148Z,40256
2018-05-17T15:02:03.149Z,36544
2018-05-17T15:03:13.404Z,33568
2018-05-17T15:04:23.581Z,36928
2018-05-17T15:05:33.870Z,42944
2018-05-17T15:06:44.104Z,40544
2018-05-17T15:07:54.394Z,36704
2018-05-17T15:09:04.581Z,34592
2018-05-17T15:10:14.761Z,31968
2018-05-17T15:11:25.430Z,22432
2018-05-17T15:12:35.266Z,15744
2018-05-17T15:13:45.515Z,14252
2018-05-17T15:14:55.675Z,13640
2018-05-17T15:16:05.861Z,13148
2018-05-17T15:17:16.136Z,12760
2018-05-17T15:18:26.297Z,12428
2018-05-17T15:19:37.231Z,12124
2018-05-17T15:20:47.807Z,11804
2018-05-17T15:21:58.006Z,11536
2018-05-17T15:23:08.159Z,11328
2018-05-17T15:24:18.016Z,11140
2018-05-17T15:25:27.909Z,10900
2018-05-17T15:26:38.098Z,10708
2018-05-17T15:27:48.411Z,10540
2018-05-17T15:28:58.694Z,10400
2018-05-17T15:30:09.004Z,10280
2018-05-17T15:31:19.146Z,10140
2018-05-17T15:32:29.438Z,10004
2018-05-17T15:33:39.631Z,9884
2018-05-17T15:34:49.825Z,9792
2018-05-17T15:35:59.694Z,9668
2018-05-17T15:37:09.982Z,9524